Time;durP1;ratioP1;P1;durP2;ratioP2;P2;SDS_P1;SDS_P2;PMS_P1;PMS_P2;Temp;Humidity;BMP_temperature;BMP_pressure;BME280_temperature;BME280_humidity;BME280_pressure;Samples;Min_cycle;Max_cycle;Signal;HPM_P1;HPM_P2
2022/08/16 00:00:28;;;;;;;;;;;;;;;23.68;55.86;99029.38;3120753;28;20039;-64
2022/08/16 00:01:59;;;;;;;;;;;;;;;23.69;55.57;99027.53;3120754;28;19989;-64
2022/08/16 00:03:32;;;;;;;;;;;;;;;23.68;55.94;99023.25;3120618;28;20024;-64
2022/08/16 00:05:03;;;;;;;;;;;;;;;23.65;56.26;99021.75;3120706;28;19929;-65
2022/08/16 00:06:35;;;;;;;;;;;;;;;23.61;55.94;99025.75;3120982;28;19925;-65
2022/08/16 00:08:07;;;;;;;;;;;;;;;23.61;56.21;99017.78;3120955;28;19925;-65
2022/08/16 00:09:38;;;;;;;;;;;;;;;23.56;56.18;99015.63;3120733;28;19925;-65
2022/08/16 00:11:11;;;;;;;;;;;;;;;23.56;56.20;99028.91;3120663;28;20392;-65
2022/08/16 00:12:43;;;;;;;;;;;;;;;23.56;56.34;99025.44;3120875;28;19968;-65
2022/08/16 00:14:15;;;;;;;;;;;;;;;23.53;56.11;99026.59;3120656;28;19928;-65
2022/08/16 00:15:48;;;;;;;;;;;;;;;23.52;56.47;99019.66;3121031;28;19925;-65
2022/08/16 00:17:19;;;;;;;;;;;;;;;23.50;56.96;99018.16;3120932;28;19925;-64
2022/08/16 00:18:52;;;;;;;;;;;;;;;23.48;56.72;99023.63;3120837;28;19925;-64
2022/08/16 00:20:24;;;;;;;;;;;;;;;23.47;56.79;99026.47;3120583;28;19925;-64
2022/08/16 00:21:56;;;;;;;;;;;;;;;23.47;56.62;99023.81;3119310;28;19925;-64
2022/08/16 00:23:28;;;;;;;;;;;;;;;23.47;56.39;99032.59;3122072;28;19994;-64
2022/08/16 00:24:59;;;;;;;;;;;;;;;23.48;56.28;99034.25;3122860;28;19925;-64
2022/08/16 00:26:31;;;;;;;;;;;;;;;23.49;56.45;99029.78;3120080;28;19925;-64
2022/08/16 00:28:02;;;;;;;;;;;;;;;23.47;56.82;99037.94;3122717;28;19933;-64
2022/08/16 00:29:34;;;;;;;;;;;;;;;23.46;56.70;99033.63;3122691;28;19926;-66
2022/08/16 00:31:06;;;;;;;;;;;;;;;23.45;57.19;99037.25;3122711;28;19925;-64
2022/08/16 00:32:38;;;;;;;;;;;;;;;23.44;57.14;99037.44;3120117;28;19985;-64
2022/08/16 00:34:11;;;;;;;;;;;;;;;23.44;56.57;99048.06;3122832;28;19925;-64
2022/08/16 00:35:43;;;;;;;;;;;;;;;23.39;57.54;99045.91;3130060;27;19933;-64
2022/08/16 00:37:15;;;;;;;;;;;;;;;23.34;57.60;99048.28;3122646;28;19940;-63
2022/08/16 00:38:46;;;;;;;;;;;;;;;23.28;58.28;99049.78;3122836;28;19936;-63
2022/08/16 00:40:19;;;;;;;;;;;;;;;23.22;58.72;99054.91;3122660;28;19929;-63
2022/08/16 00:41:50;;;;;;;;;;;;;;;23.17;59.03;99055.44;3119773;28;20066;-64
2022/08/16 00:43:24;;;;;;;;;;;;;;;23.13;58.57;99057.59;3122534;28;19935;-63
2022/08/16 00:44:58;;;;;;;;;;;;;;;23.13;58.39;99057.59;3122602;28;20365;-63
2022/08/16 00:46:31;;;;;;;;;;;;;;;23.09;59.06;99058.91;3122727;28;20028;-63
2022/08/16 00:48:04;;;;;;;;;;;;;;;23.05;59.87;99060.25;3122556;28;20032;-63
2022/08/16 00:49:37;;;;;;;;;;;;;;;22.96;60.36;99058.59;3122628;28;19925;-63
2022/08/16 00:51:07;;;;;;;;;;;;;;;22.88;60.70;99050.59;3122747;28;19936;-63
2022/08/16 00:52:39;;;;;;;;;;;;;;;22.82;60.86;99048.63;3122748;28;19925;-63
2022/08/16 00:54:12;;;;;;;;;;;;;;;22.77;60.91;99050.94;3122918;28;19929;-65
2022/08/16 00:55:45;;;;;;;;;;;;;;;22.74;61.02;99046.78;3122637;28;20017;-63
2022/08/16 00:57:17;;;;;;;;;;;;;;;22.74;60.86;99052.09;3122480;28;19964;-65
2022/08/16 00:58:49;;;;;;;;;;;;;;;22.76;60.59;99049.28;3123044;28;20015;-65
2022/08/16 01:00:23;;;;;;;;;;;;;;;22.77;60.51;99046.44;3122684;28;20372;-65
2022/08/16 01:01:56;;;;;;;;;;;;;;;22.79;60.15;99047.13;3122943;28;20004;-65
2022/08/16 01:03:28;;;;;;;;;;;;;;;22.81;60.08;99053.09;3122718;28;19925;-65
2022/08/16 01:05:00;;;;;;;;;;;;;;;22.83;59.90;99053.75;3122952;28;19925;-65
2022/08/16 01:06:32;;;;;;;;;;;;;;;22.84;59.81;99055.41;3122953;28;19936;-63
2022/08/16 01:08:06;;;;;;;;;;;;;;;22.85;59.87;99056.25;3122469;28;19932;-63
2022/08/16 01:09:39;;;;;;;;;;;;;;;22.83;60.04;99056.41;3122437;28;19932;-63
2022/08/16 01:11:11;;;;;;;;;;;;;;;22.85;59.93;99059.72;3122235;28;19986;-63
2022/08/16 01:12:42;;;;;;;;;;;;;;;22.86;59.63;99064.03;3122418;28;19941;-63
2022/08/16 01:14:16;;;;;;;;;;;;;;;22.85;59.86;99057.06;3122153;28;20372;-63
2022/08/16 01:15:49;;;;;;;;;;;;;;;22.87;59.64;99056.91;3122582;28;19940;-62
2022/08/16 01:17:21;;;;;;;;;;;;;;;22.85;59.85;99057.06;3122523;28;20039;-63
2022/08/16 01:18:54;;;;;;;;;;;;;;;22.84;59.71;99055.41;3122177;28;19933;-62
2022/08/16 01:20:31;;;;;;;;;;;;;;;22.86;59.77;99055.25;3116431;28;19925;-62
2022/08/16 01:22:06;;;;;;;;;;;;;;;22.86;59.75;99055.25;3116290;28;20298;-63
2022/08/16 01:23:47;;;;;;;;;;;;;;;22.87;59.30;99049.78;3122538;28;19936;-63
2022/08/16 01:25:20;;;;;;;;;;;;;;;22.88;59.48;99059.41;3122376;28;19937;-63
2022/08/16 01:26:54;;;;;;;;;;;;;;;22.88;59.51;99051.44;3121685;28;19926;-63
2022/08/16 01:28:26;;;;;;;;;;;;;;;22.88;59.39;99053.25;3118899;28;19976;-63
2022/08/16 01:30:00;;;;;;;;;;;;;;;22.88;59.63;99055.91;3122277;28;19929;-63
2022/08/16 01:31:32;;;;;;;;;;;;;;;22.84;59.99;99060.72;3122448;28;19940;-63
2022/08/16 01:33:05;;;;;;;;;;;;;;;22.83;60.35;99068.84;3117932;28;19930;-63
2022/08/16 01:34:36;;;;;;;;;;;;;;;22.79;60.24;99068.34;3118392;28;19925;-64
2022/08/16 01:36:09;;;;;;;;;;;;;;;22.77;60.50;99073.00;3122322;28;19929;-63
2022/08/16 01:37:41;;;;;;;;;;;;;;;22.74;60.40;99067.19;3122297;28;19925;-63
2022/08/16 01:39:16;;;;;;;;;;;;;;;22.71;60.76;99073.66;3122439;28;19929;-63
2022/08/16 01:40:49;;;;;;;;;;;;;;;22.68;60.76;99066.03;3121790;28;19940;-64
2022/08/16 01:42:20;;;;;;;;;;;;;;;22.66;60.67;99076.00;3120671;28;19925;-64
2022/08/16 01:43:51;;;;;;;;;;;;;;;;;;3122437;28;19936;-63
2022/08/16 01:45:23;;;;;;;;;;;;;;;22.68;60.22;99071.31;3122103;28;19933;-63
2022/08/16 01:46:56;;;;;;;;;;;;;;;22.69;60.02;99073.84;3122402;28;19933;-63
2022/08/16 01:48:28;;;;;;;;;;;;;;;22.69;60.42;99080.97;3122003;28;19943;-63
2022/08/16 01:49:59;;;;;;;;;;;;;;;22.68;60.09;99084.59;3122361;28;19932;-63
2022/08/16 01:51:32;;;;;;;;;;;;;;;22.68;60.70;99079.28;3121995;28;19936;-63
2022/08/16 01:53:03;;;;;;;;;;;;;;;22.67;60.36;99077.63;3122189;28;19939;-63
2022/08/16 01:54:37;;;;;;;;;;;;;;;22.66;60.58;99081.28;3122188;28;19932;-63
2022/08/16 01:56:08;;;;;;;;;;;;;;;22.65;60.55;99083.09;3121999;28;19936;-63
2022/08/16 01:57:39;;;;;;;;;;;;;;;22.65;60.23;99079.63;3118483;28;19925;-64
2022/08/16 01:59:12;;;;;;;;;;;;;;;22.65;60.18;99082.28;3122278;28;19947;-64
2022/08/16 02:00:44;;;;;;;;;;;;;;;22.64;60.46;99078.78;3122027;28;20019;-64
2022/08/16 02:02:16;;;;;;;;;;;;;;;22.64;60.11;99081.44;3118247;28;19936;-64
2022/08/16 02:03:46;;;;;;;;;;;;;;;22.65;60.12;99071.66;3122007;28;20694;-64
2022/08/16 02:05:18;;;;;;;;;;;;;;;22.64;60.39;99077.97;3122229;28;19936;-63
2022/08/16 02:06:50;;;;;;;;;;;;;;;22.64;60.32;99089.41;3122184;28;19929;-64
2022/08/16 02:08:22;;;;;;;;;;;;;;;22.60;61.06;99081.97;3122123;28;19944;-64
2022/08/16 02:09:55;;;;;;;;;;;;;;;22.55;60.92;99079.78;3122055;28;19929;-64
2022/08/16 02:11:27;;;;;;;;;;;;;;;22.54;60.67;99087.88;3121915;28;19947;-63
2022/08/16 02:12:58;;;;;;;;;;;;;;;22.53;60.84;99080.94;3122077;28;19936;-63
2022/08/16 02:14:30;;;;;;;;;;;;;;;22.53;60.81;99086.25;3121662;28;20319;-64
2022/08/16 02:16:01;;;;;;;;;;;;;;;22.51;60.66;99086.41;3121888;28;19936;-64
2022/08/16 02:17:32;;;;;;;;;;;;;;;22.52;60.67;99089.91;3122204;28;19929;-64
2022/08/16 02:19:04;;;;;;;;;;;;;;;22.53;60.72;99091.53;3122100;28;19925;-64
2022/08/16 02:20:36;;;;;;;;;;;;;;;22.53;60.63;99084.41;3122033;28;19925;-64
2022/08/16 02:22:09;;;;;;;;;;;;;;;22.52;60.72;99089.91;3121995;28;19929;-64
2022/08/16 02:23:41;;;;;;;;;;;;;;;22.52;60.84;99087.25;3121996;28;19937;-64
2022/08/16 02:25:14;;;;;;;;;;;;;;;22.51;60.76;99094.38;3119547;28;20015;-64
2022/08/16 02:26:46;;;;;;;;;;;;;;;22.51;61.27;99094.38;3121836;28;19929;-64
2022/08/16 02:28:18;;;;;;;;;;;;;;;22.46;61.46;99092.19;3136590;27;19936;-64
2022/08/16 02:29:49;;;;;;;;;;;;;;;22.40;61.97;99092.84;3121921;28;19936;-64
2022/08/16 02:31:21;;;;;;;;;;;;;;;22.34;62.18;99095.34;3121962;28;19925;-64
2022/08/16 02:32:52;;;;;;;;;;;;;;;22.22;62.68;99100.94;3121698;28;19929;-64
2022/08/16 02:34:24;;;;;;;;;;;;;;;22.14;62.83;99089.44;3121692;28;20394;-64
2022/08/16 02:35:56;;;;;;;;;;;;;;;22.12;62.61;99096.69;3109958;28;19926;-64
2022/08/16 02:37:28;;;;;;;;;;;;;;;22.03;62.96;99088.72;3116674;28;20429;-64
2022/08/16 02:39:00;;;;;;;;;;;;;;;21.96;63.24;99090.34;3120359;28;19925;-64
2022/08/16 02:40:32;;;;;;;;;;;;;;;21.93;63.40;99093.31;3121462;28;19959;-65
2022/08/16 02:42:04;;;;;;;;;;;;;;;21.91;63.02;99082.03;3120474;28;19936;-64
2022/08/16 02:43:35;;;;;;;;;;;;;;;21.79;63.42;99081.50;3121633;28;20356;-64
2022/08/16 02:45:07;;;;;;;;;;;;;;;21.74;63.56;99082.94;3121356;28;20077;-64
2022/08/16 02:46:39;;;;;;;;;;;;;;;21.70;63.79;99089.56;3121367;28;19936;-64
2022/08/16 02:48:10;;;;;;;;;;;;;;;21.64;63.78;99098.16;3121720;28;19925;-64
2022/08/16 02:49:42;;;;;;;;;;;;;;;21.58;64.33;99092.47;3121498;28;19989;-64
2022/08/16 02:51:14;;;;;;;;;;;;;;;21.50;64.26;99089.81;3121793;28;19929;-64
2022/08/16 02:52:45;;;;;;;;;;;;;;;21.48;64.58;99088.31;3121812;28;19940;-64
2022/08/16 02:54:17;;;;;;;;;;;;;;;21.43;64.50;99088.75;3121486;28;19925;-64
2022/08/16 02:55:49;;;;;;;;;;;;;;;21.39;64.64;99082.13;3121605;28;19936;-64
2022/08/16 02:57:21;;;;;;;;;;;;;;;21.35;64.79;99076.28;3121435;28;19925;-64
2022/08/16 02:58:53;;;;;;;;;;;;;;;21.35;64.71;99081.56;3121657;28;20121;-64
2022/08/16 03:00:25;;;;;;;;;;;;;;;21.37;64.24;99080.59;3121567;28;19936;-63
2022/08/16 03:01:57;;;;;;;;;;;;;;;21.36;64.77;99085.06;3119660;28;20383;-63
2022/08/16 03:03:28;;;;;;;;;;;;;;;21.38;64.46;99090.19;3121294;28;19929;-63
2022/08/16 03:04:59;;;;;;;;;;;;;;;21.40;64.22;99098.84;3121421;28;19932;-63
2022/08/16 03:06:31;;;;;;;;;;;;;;;21.40;64.30;99098.84;3121051;28;20284;-63
2022/08/16 03:08:02;;;;;;;;;;;;;;;21.39;64.60;99092.72;3115778;28;19937;-64
2022/08/16 03:09:34;;;;;;;;;;;;;;;21.38;64.94;99091.03;3121483;28;20325;-64
2022/08/16 03:11:06;;;;;;;;;;;;;;;21.37;64.83;99093.84;3121298;28;19935;-64
2022/08/16 03:12:38;;;;;;;;;;;;;;;21.38;64.45;99096.31;3121395;28;20374;-64
2022/08/16 03:14:10;;;;;;;;;;;;;;;21.43;64.19;99101.16;3121360;28;19993;-64
2022/08/16 03:15:42;;;;;;;;;;;;;;;21.47;64.09;99098.03;3121575;28;19936;-64
2022/08/16 03:17:14;;;;;;;;;;;;;;;21.49;63.86;99098.72;3121400;28;20364;-64
2022/08/16 03:18:45;;;;;;;;;;;;;;;21.52;63.78;99111.66;3121453;28;19929;-66
2022/08/16 03:20:16;;;;;;;;;;;;;;;21.53;63.59;99105.38;3121476;28;20433;-64
2022/08/16 03:21:48;;;;;;;;;;;;;;;21.56;63.65;99113.03;3115655;28;19929;-64
2022/08/16 03:23:20;;;;;;;;;;;;;;;21.58;63.45;99118.16;3121311;28;20345;-64
2022/08/16 03:24:50;;;;;;;;;;;;;;;21.60;63.44;99115.34;3121620;28;19936;-64
2022/08/16 03:26:24;;;;;;;;;;;;;;;21.61;63.13;99117.84;3120897;28;19929;-64
2022/08/16 03:27:55;;;;;;;;;;;;;;;21.61;63.29;99122.31;3121438;28;19925;-64
2022/08/16 03:29:27;;;;;;;;;;;;;;;21.62;63.45;99118.66;3121270;28;19925;-64
2022/08/16 03:30:58;;;;;;;;;;;;;;;21.62;63.38;99123.97;3121492;28;19929;-64
2022/08/16 03:32:30;;;;;;;;;;;;;;;21.61;63.80;99122.31;3121181;28;20308;-64
2022/08/16 03:34:02;;;;;;;;;;;;;;;21.61;63.53;99127.59;3121334;28;20368;-64
2022/08/16 03:35:35;;;;;;;;;;;;;;;21.61;63.50;99135.56;3116784;28;19933;-64
2022/08/16 03:37:07;;;;;;;;;;;;;;;21.57;64.16;99127.91;3121219;28;19936;-64
2022/08/16 03:38:39;;;;;;;;;;;;;;;21.56;64.38;99134.22;3121179;28;19933;-64
2022/08/16 03:40:11;;;;;;;;;;;;;;;21.55;64.23;99135.19;3120927;28;19925;-64
2022/08/16 03:41:44;;;;;;;;;;;;;;;21.55;64.20;99140.47;3120323;28;20391;-64
2022/08/16 03:43:16;;;;;;;;;;;;;;;21.54;64.61;99136.19;3114608;28;19925;-64
2022/08/16 03:44:48;;;;;;;;;;;;;;;21.54;64.31;99141.47;3120648;28;20437;-64
2022/08/16 03:46:21;;;;;;;;;;;;;;;21.57;63.92;99145.63;3121167;28;20409;-64
2022/08/16 03:47:52;;;;;;;;;;;;;;;21.58;63.98;99140.16;3121038;28;19929;-64
2022/08/16 03:49:24;;;;;;;;;;;;;;;21.60;63.82;99145.34;3119911;28;19929;-64
2022/08/16 03:50:56;;;;;;;;;;;;;;;21.62;63.69;99142.50;3121023;28;20364;-64
2022/08/16 03:52:27;;;;;;;;;;;;;;;21.63;63.70;99139.72;3121019;28;19976;-64
2022/08/16 03:53:59;;;;;;;;;;;;;;;21.65;63.73;99143.06;3121348;28;19926;-64
2022/08/16 03:55:30;;;;;;;;;;;;;;;21.68;63.57;99144.53;3121261;28;19937;-65
2022/08/16 03:57:03;;;;;;;;;;;;;;;21.69;63.48;99148.88;3121780;28;19925;-65
2022/08/16 03:58:35;;;;;;;;;;;;;;;21.71;63.41;99144.22;3123186;28;20273;-65
2022/08/16 04:00:12;;;;;;;;;;;;;;;21.72;63.47;99145.91;3123149;28;20433;-65
2022/08/16 04:01:44;;;;;;;;;;;;;;;21.74;63.40;99138.59;3123067;28;19936;-65
2022/08/16 04:03:16;;;;;;;;;;;;;;;21.75;63.44;99145.59;3121637;28;19942;-65
2022/08/16 04:04:48;;;;;;;;;;;;;;;21.77;63.38;99143.63;3123162;28;19936;-65
2022/08/16 04:06:20;;;;;;;;;;;;;;;21.78;63.33;99139.97;3123411;28;19936;-65
2022/08/16 04:07:52;;;;;;;;;;;;;;;21.79;63.57;99141.63;3122958;28;19990;-65
2022/08/16 04:09:23;;;;;;;;;;;;;;;21.80;63.62;99140.66;3123110;28;19997;-65
2022/08/16 04:10:55;;;;;;;;;;;;;;;21.80;63.38;99138.00;3121075;28;20391;-65
2022/08/16 04:12:28;;;;;;;;;;;;;;;21.82;63.54;99136.00;3122994;28;19925;-65
2022/08/16 04:14:00;;;;;;;;;;;;;;;21.83;63.78;99118.28;3123306;28;19926;-65
2022/08/16 04:15:31;;;;;;;;;;;;;;;21.83;63.52;99132.38;3122884;28;19932;-65
2022/08/16 04:17:03;;;;;;;;;;;;;;;21.81;63.43;99129.88;3123036;28;20269;-65
2022/08/16 04:18:37;;;;;;;;;;;;;;;21.83;63.49;99131.53;3123533;28;19932;-65
2022/08/16 04:20:09;;;;;;;;;;;;;;;21.84;63.31;99139.34;3123025;28;20297;-65
2022/08/16 04:21:41;;;;;;;;;;;;;;;21.84;63.52;99143.81;3123002;28;20056;-65
2022/08/16 04:23:13;;;;;;;;;;;;;;;21.82;63.77;99141.31;3123275;28;19929;-65
2022/08/16 04:24:44;;;;;;;;;;;;;;;21.83;63.40;99147.44;3123205;28;19940;-65
2022/08/16 04:26:16;;;;;;;;;;;;;;;21.85;63.56;99140.16;3123241;28;20440;-65
2022/08/16 04:27:49;;;;;;;;;;;;;;;21.83;63.35;99142.13;3133127;27;19929;-65
2022/08/16 04:29:21;;;;;;;;;;;;;;;21.80;63.26;99133.53;3122838;28;20441;-65
2022/08/16 04:30:53;;;;;;;;;;;;;;;21.83;63.31;99132.38;3122839;28;19940;-65
2022/08/16 04:32:25;;;;;;;;;;;;;;;21.80;63.38;99138.00;3122737;28;19933;-65
2022/08/16 04:33:58;;;;;;;;;;;;;;;21.75;63.52;99135.81;3122818;28;20444;-65
2022/08/16 04:35:29;;;;;;;;;;;;;;;21.70;63.77;99137.28;3122863;28;20360;-65
2022/08/16 04:37:02;;;;;;;;;;;;;;;21.70;64.25;99137.28;3122924;28;19925;-65
2022/08/16 04:38:34;;;;;;;;;;;;;;;21.68;63.95;99139.22;3122978;28;20372;-65
2022/08/16 04:40:05;;;;;;;;;;;;;;;21.68;64.25;99142.75;3122599;28;20391;-65
2022/08/16 04:41:37;;;;;;;;;;;;;;;21.71;63.84;99144.22;3122843;28;19929;-65
2022/08/16 04:43:10;;;;;;;;;;;;;;;21.74;63.60;99155.38;3122894;28;19936;-66
2022/08/16 04:44:41;;;;;;;;;;;;;;;21.82;63.34;99162.50;3122982;28;20364;-66
2022/08/16 04:46:15;;;;;;;;;;;;;;;21.86;63.22;99158.56;3122842;28;20020;-65
2022/08/16 04:47:47;;;;;;;;;;;;;;;21.94;62.85;99173.69;3123207;28;19925;-66
2022/08/16 04:49:19;;;;;;;;;;;;;;;21.95;62.72;99168.22;3122766;28;19936;-65
2022/08/16 04:50:50;;;;;;;;;;;;;;;22.03;62.35;99164.78;3123037;28;19932;-66
2022/08/16 04:52:23;;;;;;;;;;;;;;;22.07;62.23;99158.19;3122793;28;20368;-66
2022/08/16 04:53:54;;;;;;;;;;;;;;;22.11;61.93;99161.34;3123182;28;20000;-65
2022/08/16 04:55:27;;;;;;;;;;;;;;;22.17;62.09;99158.09;3122877;28;19940;-64
2022/08/16 04:56:59;;;;;;;;;;;;;;;22.21;61.94;99157.63;3122686;28;19925;-64
2022/08/16 04:58:33;;;;;;;;;;;;;;;22.26;61.67;99160.59;3122843;28;19929;-65
2022/08/16 05:00:06;;;;;;;;;;;;;;;22.33;61.57;99152.00;3118132;28;19933;-65
2022/08/16 05:01:38;;;;;;;;;;;;;;;22.38;61.87;99147.88;3122692;28;19962;-64
2022/08/16 05:03:11;;;;;;;;;;;;;;;22.44;61.31;99149.88;3122231;28;20318;-65
2022/08/16 05:04:43;;;;;;;;;;;;;;;22.49;61.52;99144.13;3121954;28;20429;-65
2022/08/16 05:06:15;;;;;;;;;;;;;;;22.51;61.21;99142.13;3117217;28;19926;-64
2022/08/16 05:07:46;;;;;;;;;;;;;;;22.55;61.13;99143.47;3122262;28;19924;-65
2022/08/16 05:09:18;;;;;;;;;;;;;;;22.58;61.05;99145.78;3121851;28;20578;-64
2022/08/16 05:10:49;;;;;;;;;;;;;;;22.60;60.86;99138.50;3120985;28;20333;-64
2022/08/16 05:12:21;;;;;;;;;;;;;;;22.65;60.95;99145.97;3122412;28;19929;-64
2022/08/16 05:13:54;;;;;;;;;;;;;;;22.67;60.84;99144.00;3121703;28;20460;-65
2022/08/16 05:15:26;;;;;;;;;;;;;;;22.70;60.78;99148.97;3122550;28;20403;-65
2022/08/16 05:16:58;;;;;;;;;;;;;;;22.70;60.73;99147.13;3122700;28;19929;-64
2022/08/16 05:18:29;;;;;;;;;;;;;;;22.72;60.60;99149.66;3122668;28;20360;-65
2022/08/16 05:20:01;;;;;;;;;;;;;;;22.74;60.59;99158.25;3122617;28;19925;-65
2022/08/16 05:21:34;;;;;;;;;;;;;;;22.77;60.45;99163.25;3122380;28;20115;-64
2022/08/16 05:23:05;;;;;;;;;;;;;;;22.80;60.48;99152.28;3122643;28;19929;-64
2022/08/16 05:24:37;;;;;;;;;;;;;;;22.86;60.42;99154.28;3122379;28;19995;-65
2022/08/16 05:26:09;;;;;;;;;;;;;;;22.91;60.58;99146.69;3122234;28;19925;-65
2022/08/16 05:27:41;;;;;;;;;;;;;;;23.00;60.24;99142.22;3118402;28;19936;-65
2022/08/16 05:29:14;;;;;;;;;;;;;;;23.06;59.88;99144.22;3116371;28;19929;-64
2022/08/16 05:30:46;;;;;;;;;;;;;;;23.12;59.54;99148.88;3115878;28;20042;-64
2022/08/16 05:32:18;;;;;;;;;;;;;;;23.21;59.30;99140.91;3122510;28;19929;-64
2022/08/16 05:33:50;;;;;;;;;;;;;;;23.28;59.09;99140.09;3122358;28;19928;-64
2022/08/16 05:35:21;;;;;;;;;;;;;;;23.38;58.86;99135.41;3122302;28;20347;-64
2022/08/16 05:36:56;;;;;;;;;;;;;;;23.48;58.78;99143.22;3122152;28;19929;-64
2022/08/16 05:38:27;;;;;;;;;;;;;;;23.58;58.32;99140.41;3122522;28;20360;-64
2022/08/16 05:39:59;;;;;;;;;;;;;;;23.68;58.00;99138.38;3122093;28;19929;-63
2022/08/16 05:41:30;;;;;;;;;;;;;;;23.77;57.59;99133.88;3122437;28;19929;-64
2022/08/16 05:43:01;;;;;;;;;;;;;;;23.85;57.03;99131.22;3122271;28;19925;-64
2022/08/16 05:44:34;;;;;;;;;;;;;;;23.98;57.01;99130.66;3122459;28;19941;-65
2022/08/16 05:46:05;;;;;;;;;;;;;;;24.16;56.39;99128.59;3122515;28;20034;-67
2022/08/16 05:47:37;;;;;;;;;;;;;;;24.43;55.34;99135.34;3122557;28;20037;-64
2022/08/16 05:49:08;;;;;;;;;;;;;;;24.73;54.67;99136.31;3114789;28;20386;-65
2022/08/16 05:50:39;;;;;;;;;;;;;;;24.98;53.83;99144.94;3122297;28;19925;-65
2022/08/16 05:52:12;;;;;;;;;;;;;;;25.19;53.29;99152.31;3122647;28;20472;-65
2022/08/16 05:53:43;;;;;;;;;;;;;;;25.39;52.59;99149.16;3115982;28;19985;-65
2022/08/16 05:55:16;;;;;;;;;;;;;;;25.56;52.55;99156.00;3122016;28;19925;-65
2022/08/16 05:56:48;;;;;;;;;;;;;;;25.73;51.82;99155.81;3120341;28;19928;-65
2022/08/16 05:58:19;;;;;;;;;;;;;;;25.80;51.77;99152.25;3122400;28;19940;-65
2022/08/16 05:59:52;;;;;;;;;;;;;;;25.84;51.70;99158.91;3122098;28;19940;-65
2022/08/16 06:01:24;;;;;;;;;;;;;;;25.84;50.89;99155.41;3122254;28;19936;-64
2022/08/16 06:02:56;;;;;;;;;;;;;;;25.82;51.27;99150.28;3122371;28;19929;-64
2022/08/16 06:04:28;;;;;;;;;;;;;;;25.80;51.04;99146.91;3122091;28;20016;-64
2022/08/16 06:06:00;;;;;;;;;;;;;;;25.81;51.66;99151.22;3122226;28;19982;-64
2022/08/16 06:07:31;;;;;;;;;;;;;;;25.83;51.47;99141.25;3121857;28;20464;-64
2022/08/16 06:09:03;;;;;;;;;;;;;;;25.85;51.32;99133.91;3121717;28;19940;-64
2022/08/16 06:10:35;;;;;;;;;;;;;;;25.88;50.71;99143.34;3119930;28;19937;-64
2022/08/16 06:12:07;;;;;;;;;;;;;;;25.91;50.73;99137.66;3122108;28;19929;-64
2022/08/16 06:13:38;;;;;;;;;;;;;;;25.99;50.92;99142.06;3121935;28;19977;-64
2022/08/16 06:15:13;;;;;;;;;;;;;;;26.06;50.69;99140.34;3122342;28;20425;-64
2022/08/16 06:16:44;;;;;;;;;;;;;;;26.15;51.02;99138.34;3116013;28;19925;-64
2022/08/16 06:18:16;;;;;;;;;;;;;;;26.18;49.73;99130.00;3122776;28;19929;-65
2022/08/16 06:19:48;;;;;;;;;;;;;;;26.24;50.17;99130.09;3148677;27;20376;-65
2022/08/16 06:21:20;;;;;;;;;;;;;;;26.30;49.24;99131.19;3121012;28;20276;-65
2022/08/16 06:22:54;;;;;;;;;;;;;;;26.38;49.56;99138.25;3122048;28;19925;-65
2022/08/16 06:24:26;;;;;;;;;;;;;;;26.44;48.65;99143.66;3122145;28;20568;-65
2022/08/16 06:25:58;;;;;;;;;;;;;;;26.53;48.74;99147.06;3121810;28;19940;-65
2022/08/16 06:27:29;;;;;;;;;;;;;;;26.60;48.09;99149.84;3122427;28;19925;-65
2022/08/16 06:29:01;;;;;;;;;;;;;;;26.62;46.99;99147.78;3122033;28;19929;-65
2022/08/16 06:30:34;;;;;;;;;;;;;;;26.66;47.19;99143.75;3122208;28;19929;-65
2022/08/16 06:32:06;;;;;;;;;;;;;;;26.69;46.32;99146.84;3122065;28;19930;-65
2022/08/16 06:33:37;;;;;;;;;;;;;;;26.74;46.60;99135.63;3121908;28;19951;-65
2022/08/16 06:35:10;;;;;;;;;;;;;;;26.81;46.52;99127.66;3121972;28;20350;-65
2022/08/16 06:36:42;;;;;;;;;;;;;;;26.89;46.33;99133.72;3121922;28;19961;-65
2022/08/16 06:38:14;;;;;;;;;;;;;;;26.99;46.46;99120.03;3115476;28;20351;-65
2022/08/16 06:39:45;;;;;;;;;;;;;;;27.00;46.21;99119.84;3121840;28;19997;-65
2022/08/16 06:41:17;;;;;;;;;;;;;;;27.07;45.74;99116.41;3121759;28;19929;-64
2022/08/16 06:42:50;;;;;;;;;;;;;;;27.12;45.53;99114.78;3121767;28;19932;-64
2022/08/16 06:44:22;;;;;;;;;;;;;;;27.19;45.76;99105.00;3121855;28;19933;-64
2022/08/16 06:45:56;;;;;;;;;;;;;;;27.26;45.82;99110.41;3121843;28;19925;-64
2022/08/16 06:47:27;;;;;;;;;;;;;;;27.32;45.47;99111.47;3121685;28;19940;-64
2022/08/16 06:48:59;;;;;;;;;;;;;;;27.38;45.41;99111.53;3121649;28;20431;-65
2022/08/16 06:50:31;;;;;;;;;;;;;;;27.44;44.81;99105.41;3122165;28;19936;-65
2022/08/16 06:52:03;;;;;;;;;;;;;;;27.49;45.29;99101.31;3115324;28;20388;-65
2022/08/16 06:53:35;;;;;;;;;;;;;;;27.57;44.99;99096.66;3121166;28;20330;-65
2022/08/16 06:55:07;;;;;;;;;;;;;;;27.66;44.92;99106.16;3121592;28;19982;-65
2022/08/16 06:56:39;;;;;;;;;;;;;;;27.75;44.85;99111.38;3119354;28;20272;-65
2022/08/16 06:58:10;;;;;;;;;;;;;;;27.78;44.47;99109.16;3121518;28;20368;-65
2022/08/16 06:59:42;;;;;;;;;;;;;;;27.80;43.90;99104.41;3121688;28;19936;-65
2022/08/16 07:01:15;;;;;;;;;;;;;;;27.84;43.74;99105.69;3121480;28;19972;-65
2022/08/16 07:02:47;;;;;;;;;;;;;;;27.90;44.11;99102.22;3121946;28;19929;-65
2022/08/16 07:04:19;;;;;;;;;;;;;;;28.01;44.17;99105.34;3121613;28;19925;-65
2022/08/16 07:05:51;;;;;;;;;;;;;;;28.06;43.94;99100.22;3118921;28;20330;-65
2022/08/16 07:07:22;;;;;;;;;;;;;;;28.08;43.13;99095.50;3119320;28;19933;-65
2022/08/16 07:08:54;;;;;;;;;;;;;;;28.13;43.13;99099.25;3121508;28;20337;-65
2022/08/16 07:10:27;;;;;;;;;;;;;;;28.22;43.07;99097.22;3121512;28;19989;-64
2022/08/16 07:11:58;;;;;;;;;;;;;;;28.30;43.36;99090.84;3121489;28;20304;-65
2022/08/16 07:13:29;;;;;;;;;;;;;;;28.38;43.01;99098.69;3121717;28;19925;-67
2022/08/16 07:15:03;;;;;;;;;;;;;;;28.49;42.82;99097.31;3121909;28;19925;-64
2022/08/16 07:16:36;;;;;;;;;;;;;;;28.57;43.29;99100.66;3121452;28;20340;-64
2022/08/16 07:18:10;;;;;;;;;;;;;;;28.68;43.17;99090.34;3121673;28;19933;-64
2022/08/16 07:19:42;;;;;;;;;;;;;;;28.77;43.04;99094.47;3120463;28;19928;-64
2022/08/16 07:21:15;;;;;;;;;;;;;;;28.86;41.96;99100.47;3119699;28;20391;-64
2022/08/16 07:22:47;;;;;;;;;;;;;;;28.96;41.98;99087.50;3121165;28;20288;-64
2022/08/16 07:24:19;;;;;;;;;;;;;;;29.01;41.16;99090.38;3121265;28;20368;-64
2022/08/16 07:25:51;;;;;;;;;;;;;;;29.10;41.34;99091.03;3121274;28;19925;-64
2022/08/16 07:27:23;;;;;;;;;;;;;;;29.21;41.10;99093.09;3121481;28;20285;-65
2022/08/16 07:28:55;;;;;;;;;;;;;;;29.33;41.11;99096.78;3121216;28;20280;-64
2022/08/16 07:30:26;;;;;;;;;;;;;;;29.38;39.53;99093.50;3121280;28;19925;-64
2022/08/16 07:32:00;;;;;;;;;;;;;;;29.36;39.18;99091.00;3120905;28;19941;-65
2022/08/16 07:33:33;;;;;;;;;;;;;;;29.41;39.71;99095.75;3121470;28;19929;-65
2022/08/16 07:35:05;;;;;;;;;;;;;;;29.45;39.15;99097.81;3117976;28;19980;-65
2022/08/16 07:36:37;;;;;;;;;;;;;;;29.52;39.57;99097.81;3121016;28;19951;-64
2022/08/16 07:38:08;;;;;;;;;;;;;;;29.62;39.58;99087.50;3121479;28;19944;-65
2022/08/16 07:39:40;;;;;;;;;;;;;;;29.76;40.04;99099.03;3121152;28;19925;-64
2022/08/16 07:41:14;;;;;;;;;;;;;;;29.86;39.74;99101.25;3120515;28;20377;-64
2022/08/16 07:42:44;;;;;;;;;;;;;;;29.98;39.87;99107.63;3121007;28;20261;-64
2022/08/16 07:44:16;;;;;;;;;;;;;;;30.09;39.24;99112.34;3121166;28;19946;-64
2022/08/16 07:45:48;;;;;;;;;;;;;;;30.20;39.06;99102.78;3121139;28;19928;-64
2022/08/16 07:47:21;;;;;;;;;;;;;;;30.32;38.76;99103.78;3121416;28;19925;-65
2022/08/16 07:48:53;;;;;;;;;;;;;;;30.47;38.94;99108.88;3119409;28;20372;-64
2022/08/16 07:50:26;;;;;;;;;;;;;;;30.60;38.55;99106.09;3121179;28;20226;-64
2022/08/16 07:51:57;;;;;;;;;;;;;;;30.74;38.46;99100.66;3119570;28;19925;-64
2022/08/16 07:53:30;;;;;;;;;;;;;;;30.89;37.89;99098.50;3116888;28;19929;-65
2022/08/16 07:55:02;;;;;;;;;;;;;;;31.01;37.45;99095.94;3121194;28;19925;-65
2022/08/16 07:56:33;;;;;;;;;;;;;;;31.08;36.66;99106.63;3120803;28;20277;-64
2022/08/16 07:58:05;;;;;;;;;;;;;;;31.16;36.91;99099.13;3119026;28;20382;-65
2022/08/16 07:59:37;;;;;;;;;;;;;;;31.20;36.46;99097.63;3116816;28;20268;-64